Time;durP1;ratioP1;P1;durP2;ratioP2;P2;SDS_P1;SDS_P2;PMS_P1;PMS_P2;Temp;Humidity;BMP_temperature;BMP_pressure;BME280_temperature;BME280_humidity;BME280_pressure;Samples;Min_cycle;Max_cycle;Signal;HPM_P1;HPM_P2
2022/10/13 04:04:29;;;;;;;10.52;7.68;;;11.40;99.90;;;;;;5663920;22;20557;-64
2022/10/13 04:06:55;;;;;;;8.73;7.83;;;11.40;99.90;;;;;;5013889;28;20176;-61
2022/10/13 04:09:21;;;;;;;12.23;8.53;;;11.40;99.90;;;;;;5011141;28;20189;-63
2022/10/13 04:11:50;;;;;;;12.10;7.87;;;11.40;99.90;;;;;;5014756;28;20412;-66
2022/10/13 04:14:15;;;;;;;12.37;8.37;;;11.40;99.90;;;;;;5014232;28;20215;-64
2022/10/13 04:16:41;;;;;;;13.00;8.00;;;11.40;99.90;;;;;;5014747;28;20802;-64
2022/10/13 04:19:06;;;;;;;9.17;7.90;;;11.40;99.90;;;;;;4997726;28;20172;-63
2022/10/13 04:21:33;;;;;;;10.50;6.40;;;11.40;99.90;;;;;;5014816;28;20190;-63
2022/10/13 04:24:00;;;;;;;11.73;7.00;;;11.50;99.90;;;;;;5014023;28;20200;-64
2022/10/13 04:26:28;;;;;;;9.80;8.80;;;11.50;99.90;;;;;;5014570;28;20461;-63
2022/10/13 04:28:55;;;;;;;7.78;6.80;;;11.60;99.90;;;;;;4999216;28;20428;-64
2022/10/13 04:31:22;;;;;;;11.07;7.00;;;11.60;99.90;;;;;;4994709;28;20257;-64
2022/10/13 04:33:49;;;;;;;11.10;8.57;;;11.60;99.90;;;;;;4992991;28;20528;-64
2022/10/13 04:36:15;;;;;;;8.27;6.80;;;11.60;99.90;;;;;;4994743;28;20473;-62
2022/10/13 04:38:42;;;;;;;9.23;5.93;;;11.60;99.90;;;;;;5007273;28;20424;-64
2022/10/13 04:41:09;;;;;;;8.10;6.97;;;11.60;99.90;;;;;;5014269;28;20398;-63
2022/10/13 04:43:35;;;;;;;9.20;7.40;;;11.50;99.90;;;;;;5013858;28;20417;-64
2022/10/13 04:46:01;;;;;;;10.40;6.80;;;11.50;99.90;;;;;;5014022;28;20407;-64
2022/10/13 04:48:28;;;;;;;10.50;7.40;;;11.50;99.90;;;;;;5003027;28;20280;-64
2022/10/13 04:51:08;;;;;;;9.10;7.03;;;11.50;99.90;;;;;;4994385;28;20504;-63
2022/10/13 04:53:35;;;;;;;9.20;6.57;;;11.50;99.90;;;;;;4993742;28;20431;-66
2022/10/13 04:56:07;;;;;;;8.80;6.80;;;11.50;99.90;;;;;;4994042;28;20909;-63
2022/10/13 04:58:33;;;;;;;12.50;7.50;;;11.50;99.90;;;;;;5004540;28;20759;-64
2022/10/13 05:00:58;;;;;;;10.00;6.75;;;11.40;99.90;;;;;;5013704;28;20460;-64
2022/10/13 05:03:24;;;;;;;8.40;6.60;;;11.40;99.90;;;;;;5012584;28;20726;-64
2022/10/13 05:05:50;;;;;;;9.80;7.27;;;11.40;99.90;;;;;;5002396;28;20190;-67
2022/10/13 05:08:16;;;;;;;8.13;6.23;;;11.40;99.90;;;;;;4994018;28;20889;-63
2022/10/13 05:10:42;;;;;;;9.63;7.03;;;11.40;99.90;;;;;;4994166;28;20412;-65
2022/10/13 05:13:07;;;;;;;10.53;7.43;;;11.30;99.90;;;;;;4994005;28;20574;-69
2022/10/13 05:15:33;;;;;;;13.57;8.27;;;11.30;99.90;;;;;;4993970;28;20219;-64
2022/10/13 05:17:59;;;;;;;10.40;7.53;;;11.30;99.90;;;;;;5001305;28;20181;-65
2022/10/13 05:20:25;;;;;;;11.00;8.00;;;11.20;99.90;;;;;;4993830;28;20183;-65
2022/10/13 05:22:51;;;;;;;9.20;6.82;;;11.20;99.90;;;;;;4993621;28;20515;-64
2022/10/13 05:25:17;;;;;;;7.87;6.90;;;11.10;99.90;;;;;;4994341;28;20283;-64
2022/10/13 05:27:45;;;;;;;9.53;8.13;;;11.10;99.90;;;;;;4994215;28;20168;-63
2022/10/13 05:30:11;;;;;;;9.23;7.15;;;11.10;99.90;;;;;;4993773;28;20518;-65
2022/10/13 05:32:36;;;;;;;9.37;6.60;;;11.10;99.90;;;;;;4993621;28;20621;-64
2022/10/13 05:35:02;;;;;;;9.23;6.23;;;11.10;99.90;;;;;;4993565;28;20471;-63
2022/10/13 05:37:28;;;;;;;11.43;7.80;;;11.10;99.90;;;;;;4994046;28;20188;-65
2022/10/13 05:39:53;;;;;;;13.13;6.80;;;11.10;99.90;;;;;;4993555;28;20180;-62
2022/10/13 05:42:19;;;;;;;9.37;7.27;;;11.10;99.90;;;;;;5006877;28;20522;-64
2022/10/13 05:44:44;;;;;;;11.70;7.57;;;11.10;99.90;;;;;;5002667;28;20342;-62
2022/10/13 05:47:10;;;;;;;9.03;7.43;;;11.10;99.90;;;;;;4989016;28;20192;-65
2022/10/13 05:49:38;;;;;;;12.27;7.60;;;11.10;99.90;;;;;;5000525;28;20186;-62
2022/10/13 05:52:07;;;;;;;11.02;6.85;;;11.20;99.90;;;;;;5012502;28;20427;-64
2022/10/13 05:54:38;;;;;;;12.43;7.30;;;11.20;99.90;;;;;;4995869;28;20349;-64
2022/10/13 05:57:14;;;;;;;13.93;8.40;;;11.30;99.90;;;;;;5013183;28;20416;-62
2022/10/13 05:59:44;;;;;;;12.23;7.63;;;11.40;99.90;;;;;;5012968;28;20896;-62
2022/10/13 06:02:13;;;;;;;9.00;7.77;;;11.50;99.90;;;;;;4984663;28;20424;-64
2022/10/13 06:04:46;;;;;;;14.20;7.87;;;11.60;99.90;;;;;;4993070;28;20862;-63
2022/10/13 06:07:12;;;;;;;16.83;8.07;;;11.70;99.90;;;;;;4993454;28;20463;-64
2022/10/13 06:09:39;;;;;;;12.67;7.07;;;11.80;99.90;;;;;;4993415;28;20408;-64
2022/10/13 06:12:06;;;;;;;12.87;8.80;;;12.00;99.90;;;;;;5002939;28;20181;-65
2022/10/13 06:14:32;;;;;;;16.80;8.20;;;12.10;99.90;;;;;;5012818;28;20440;-63
2022/10/13 06:16:57;;;;;;;15.10;9.57;;;12.20;99.90;;;;;;5013141;28;20408;-64
2022/10/13 06:19:23;;;;;;;9.73;7.77;;;12.20;99.90;;;;;;4995509;28;20475;-62
2022/10/13 06:21:49;;;;;;;10.73;8.30;;;12.30;99.90;;;;;;4987846;28;20183;-64
2022/10/13 06:24:14;;;;;;;13.63;8.90;;;12.30;99.90;;;;;;4993033;28;20206;-62
2022/10/13 06:26:40;;;;;;;12.30;8.03;;;12.30;99.90;;;;;;4997194;28;20174;-62
2022/10/13 06:29:06;;;;;;;10.20;8.07;;;12.30;99.90;;;;;;4997011;28;20206;-64
2022/10/13 06:31:31;;;;;;;10.20;7.43;;;12.40;99.90;;;;;;5001561;28;20693;-63
2022/10/13 06:33:58;;;;;;;11.27;8.20;;;12.40;99.90;;;;;;5016363;28;20197;-64
2022/10/13 06:36:23;;;;;;;9.50;7.27;;;12.50;99.90;;;;;;5008806;28;20513;-63
2022/10/13 06:38:49;;;;;;;9.23;5.70;;;12.60;99.90;;;;;;4996871;28;20458;-63
2022/10/13 06:41:15;;;;;;;15.20;9.27;;;12.70;99.90;;;;;;4996845;28;20206;-62
2022/10/13 06:43:41;;;;;;;7.80;6.57;;;12.80;99.90;;;;;;4996149;28;20211;-62
2022/10/13 06:46:07;;;;;;;9.57;6.30;;;12.90;99.90;;;;;;5000399;28;20181;-61
2022/10/13 06:48:33;;;;;;;11.00;7.90;;;12.90;99.90;;;;;;5016596;28;20468;-63
2022/10/13 06:51:07;;;;;;;11.20;7.33;;;13.00;99.90;;;;;;5016179;28;20455;-64
2022/10/13 06:53:33;;;;;;;11.93;6.93;;;13.10;99.90;;;;;;5015571;28;20438;-65
2022/10/13 06:56:01;;;;;;;8.23;6.87;;;13.10;99.90;;;;;;4995719;28;20418;-64
2022/10/13 06:58:27;;;;;;;10.57;7.00;;;13.20;99.90;;;;;;5012978;28;20436;-65
2022/10/13 07:00:53;;;;;;;15.23;8.07;;;13.20;99.90;;;;;;5016054;28;20401;-62
2022/10/13 07:03:18;;;;;;;13.83;8.47;;;13.30;99.90;;;;;;5015591;28;20407;-63
2022/10/13 07:05:44;;;;;;;11.20;7.53;;;13.40;99.90;;;;;;5015746;28;20468;-64
2022/10/13 07:08:10;;;;;;;11.63;8.07;;;13.40;99.90;;;;;;4984617;28;20645;-62
2022/10/13 07:10:39;;;;;;;11.47;6.80;;;13.40;99.90;;;;;;4996267;28;20168;-62
2022/10/13 07:13:05;;;;;;;9.27;6.60;;;13.50;99.90;;;;;;4995991;28;20179;-62
2022/10/13 07:15:32;;;;;;;10.83;7.60;;;13.50;99.90;;;;;;4996101;28;20797;-65
2022/10/13 07:17:58;;;;;;;6.93;5.67;;;13.60;99.90;;;;;;4996482;28;20422;-64
2022/10/13 07:20:24;;;;;;;17.07;8.17;;;13.60;99.90;;;;;;4996010;28;20422;-64
2022/10/13 07:22:53;;;;;;;14.93;6.60;;;13.70;99.90;;;;;;4995709;28;20490;-63
2022/10/13 07:25:20;;;;;;;13.10;7.77;;;13.80;99.90;;;;;;4995981;28;20454;-65
2022/10/13 07:27:46;;;;;;;11.73;6.60;;;14.00;99.90;;;;;;5003984;28;20425;-64
2022/10/13 07:30:12;;;;;;;8.00;5.20;;;14.00;99.90;;;;;;5015231;28;20880;-64
2022/10/13 07:32:38;;;;;;;9.30;6.23;;;14.10;99.90;;;;;;4997399;28;20258;-63
2022/10/13 07:35:04;;;;;;;7.13;6.10;;;14.20;99.90;;;;;;5015422;28;20433;-65
2022/10/13 07:37:30;;;;;;;12.33;6.80;;;14.20;99.90;;;;;;4991066;28;20426;-65
2022/10/13 07:39:55;;;;;;;7.90;5.77;;;14.40;99.90;;;;;;4993685;28;20913;-62
2022/10/13 07:42:32;;;;;;;8.17;6.77;;;14.40;99.90;;;;;;4995651;28;20184;-64
2022/10/13 07:45:00;;;;;;;8.93;5.50;;;14.60;99.90;;;;;;4995833;28;20678;-64
2022/10/13 07:47:25;;;;;;;8.80;5.60;;;14.70;99.90;;;;;;4997896;28;20412;-63
2022/10/13 07:49:53;;;;;;;7.47;5.83;;;14.80;99.90;;;;;;5015368;28;20836;-64
2022/10/13 07:52:19;;;;;;;9.40;6.07;;;14.90;99.90;;;;;;5014981;28;20185;-62
2022/10/13 07:54:44;;;;;;;12.03;6.13;;;15.10;99.90;;;;;;5014579;28;20437;-63
2022/10/13 07:57:10;;;;;;;7.50;5.80;;;15.30;99.90;;;;;;4996094;28;20210;-62
2022/10/13 07:59:35;;;;;;;10.50;5.77;;;15.60;99.90;;;;;;4995492;28;20196;-64
2022/10/13 08:02:02;;;;;;;8.27;6.87;;;15.90;99.90;;;;;;4995791;28;20187;-66
2022/10/13 08:04:34;;;;;;;9.73;5.03;;;16.10;99.90;;;;;;4977347;28;20675;-62
2022/10/13 08:07:01;;;;;;;10.43;5.83;;;16.40;99.90;;;;;;4977635;28;20819;-63
2022/10/13 08:09:27;;;;;;;6.50;5.03;;;16.70;99.90;;;;;;5014479;28;20784;-64
2022/10/13 08:11:52;;;;;;;8.90;5.70;;;16.80;99.90;;;;;;5014427;28;20418;-65
2022/10/13 08:14:19;;;;;;;6.13;4.57;;;16.90;99.90;;;;;;5014590;28;20734;-63
2022/10/13 08:16:46;;;;;;;7.87;5.97;;;17.00;99.90;;;;;;5014761;28;20294;-66
2022/10/13 08:19:13;;;;;;;6.80;4.40;;;17.10;99.90;;;;;;5014751;28;20449;-64
2022/10/13 08:21:38;;;;;;;6.80;3.73;;;17.30;99.90;;;;;;5006075;28;20431;-65
2022/10/13 08:24:11;;;;;;;5.43;3.80;;;17.40;99.90;;;;;;4994587;28;20454;-62
2022/10/13 08:26:37;;;;;;;5.17;4.30;;;17.60;99.90;;;;;;4994865;28;20434;-66
2022/10/13 08:29:03;;;;;;;7.20;4.20;;;17.90;99.90;;;;;;4994964;28;20407;-64
2022/10/13 08:31:29;;;;;;;4.00;3.60;;;18.00;99.90;;;;;;5001467;28;20413;-64
2022/10/13 08:33:55;;;;;;;3.87;3.50;;;18.20;99.90;;;;;;5014070;28;20492;-64
2022/10/13 08:36:20;;;;;;;3.57;3.27;;;18.40;99.90;;;;;;5014635;28;20189;-65
2022/10/13 08:38:46;;;;;;;5.60;4.20;;;18.50;99.90;;;;;;5014230;28;20456;-65
2022/10/13 08:41:18;;;;;;;4.90;4.40;;;18.60;99.90;;;;;;5010771;28;20187;-63
2022/10/13 08:43:54;;;;;;;7.10;5.13;;;18.90;99.90;;;;;;4994158;28;20239;-66
2022/10/13 08:46:32;;;;;;;10.50;4.53;;;19.20;99.90;;;;;;4994759;28;20374;-64
2022/10/13 08:49:00;;;;;;;4.80;4.20;;;19.60;99.90;;;;;;4994007;28;20447;-64
2022/10/13 08:51:29;;;;;;;5.97;4.33;;;20.00;99.90;;;;;;4994943;28;20397;-65
2022/10/13 08:53:54;;;;;;;7.03;5.00;;;20.30;99.90;;;;;;4994220;28;20495;-64
2022/10/13 08:56:30;;;;;;;4.43;4.03;;;20.80;99.90;;;;;;4994280;28;20493;-63
2022/10/13 08:58:56;;;;;;;8.50;4.90;;;21.20;99.90;;;;;;4994466;28;20182;-66
2022/10/13 09:01:23;;;;;;;6.20;4.20;;;21.60;99.90;;;;;;5000848;28;20464;-63
2022/10/13 09:04:20;;;;;;;4.00;3.60;;;21.80;99.90;;;;;;5015506;28;20501;-64
2022/10/13 09:06:53;;;;;;;4.90;4.03;;;22.20;99.10;;;;;;5018062;28;20413;-64
2022/10/13 09:09:18;;;;;;;4.97;3.70;;;22.40;98.60;;;;;;5003901;28;20410;-63
2022/10/13 09:11:47;;;;;;;3.40;3.10;;;22.50;97.70;;;;;;5015363;28;20773;-64
2022/10/13 09:14:29;;;;;;;4.37;3.97;;;22.30;97.50;;;;;;5001891;28;20562;-63
2022/10/13 09:17:10;;;;;;;5.13;3.33;;;22.20;97.80;;;;;;4994466;28;20476;-65
2022/10/13 09:19:36;;;;;;;5.93;3.80;;;21.90;97.80;;;;;;4994106;28;20414;-62
2022/10/13 09:22:37;;;;;;;5.73;3.83;;;21.60;98.50;;;;;;5002567;28;20890;-65
2022/10/13 09:25:26;;;;;;;3.80;3.50;;;21.40;98.50;;;;;;4995283;28;20678;-64
2022/10/13 09:27:57;;;;;;;4.67;4.20;;;21.40;98.60;;;;;;4934153;29;20417;-63
2022/10/13 09:30:31;;;;;;;4.47;3.43;;;21.20;99.40;;;;;;4934065;29;20417;-66
2022/10/13 09:33:21;;;;;;;3.37;3.07;;;21.00;99.80;;;;;;4933275;29;20560;-63
2022/10/13 09:35:59;;;;;;;7.27;4.50;;;20.90;99.50;;;;;;4933495;29;20412;-65
2022/10/13 09:38:25;;;;;;;6.83;3.57;;;20.70;99.90;;;;;;4933847;29;20397;-64
2022/10/13 09:41:04;;;;;;;5.90;3.83;;;20.60;99.90;;;;;;4933956;29;20874;-64
2022/10/13 09:43:31;;;;;;;5.00;3.40;;;20.40;99.90;;;;;;4933395;29;20468;-65
2022/10/13 09:45:59;;;;;;;6.13;4.13;;;20.20;99.90;;;;;;4902223;29;20420;-63
2022/10/13 09:48:28;;;;;;;5.40;4.23;;;20.00;99.90;;;;;;4933809;29;20397;-66
2022/10/13 09:50:56;;;;;;;5.30;4.57;;;19.80;99.90;;;;;;4933552;29;20848;-63
2022/10/13 09:53:28;;;;;;;5.57;3.67;;;19.60;99.90;;;;;;4917569;29;20418;-63
2022/10/13 09:56:21;;;;;;;4.03;3.63;;;19.40;99.90;;;;;;4933492;29;20402;-63
2022/10/13 09:59:01;;;;;;;5.47;4.40;;;19.20;99.90;;;;;;4902260;29;20832;-66
2022/10/13 10:01:34;;;;;;;4.47;4.00;;;19.10;99.90;;;;;;4937424;29;20873;-65
2022/10/13 10:04:22;;;;;;;4.53;3.93;;;19.00;99.90;;;;;;4945835;28;20471;-65
2022/10/13 10:06:51;;;;;;;11.10;3.77;;;19.00;99.90;;;;;;5005250;28;20460;-64
2022/10/13 10:09:35;;;;;;;4.90;3.63;;;18.90;99.90;;;;;;4999573;28;20402;-63
2022/10/13 10:12:03;;;;;;;6.27;4.30;;;18.90;99.90;;;;;;5017045;28;20398;-64
2022/10/13 10:14:32;;;;;;;5.40;3.97;;;19.00;99.90;;;;;;5016349;28;20429;-63
2022/10/13 10:17:16;;;;;;;5.13;3.87;;;19.00;99.90;;;;;;5007217;28;20426;-66
2022/10/13 10:20:09;;;;;;;5.97;4.20;;;19.00;99.90;;;;;;4997368;28;20423;-64
2022/10/13 10:23:05;;;;;;;5.70;3.70;;;18.90;99.90;;;;;;4996728;28;20418;-65
2022/10/13 10:25:41;;;;;;;4.97;4.13;;;18.90;99.90;;;;;;4996042;28;20921;-63
2022/10/13 10:28:07;;;;;;;5.13;3.83;;;18.60;99.90;;;;;;5015273;28;20421;-66
2022/10/13 10:30:40;;;;;;;4.17;3.77;;;18.50;99.90;;;;;;4999077;28;20986;-66
2022/10/13 10:33:29;;;;;;;4.40;3.63;;;18.50;99.90;;;;;;5016430;28;20182;-63
2022/10/13 10:36:03;;;;;;;5.53;4.37;;;18.50;99.90;;;;;;5016099;28;20416;-62
2022/10/13 10:39:07;;;;;;;4.10;3.73;;;18.40;99.90;;;;;;4997172;28;20405;-65
2022/10/13 10:41:47;;;;;;;5.97;3.70;;;18.40;99.90;;;;;;4997028;28;20411;-65
2022/10/13 10:44:18;;;;;;;4.10;3.73;;;18.20;99.90;;;;;;4995975;28;20450;-63
2022/10/13 10:46:49;;;;;;;4.63;3.80;;;18.10;99.90;;;;;;4997003;28;20431;-66
2022/10/13 10:49:21;;;;;;;5.17;4.67;;;18.00;99.90;;;;;;4996859;28;20454;-64
2022/10/13 10:51:48;;;;;;;3.80;3.40;;;17.90;99.90;;;;;;4996855;28;20415;-66
2022/10/13 10:54:48;;;;;;;5.00;3.80;;;17.90;99.90;;;;;;4978830;28;20434;-62
2022/10/13 10:57:17;;;;;;;5.50;3.67;;;17.90;99.90;;;;;;4955241;29;20575;-65
2022/10/13 11:00:12;;;;;;;6.00;4.20;;;17.90;99.90;;;;;;4955705;29;20428;-63
2022/10/13 11:02:45;;;;;;;7.17;3.57;;;17.90;99.90;;;;;;4948079;29;20428;-65
2022/10/13 11:05:23;;;;;;;4.50;3.90;;;18.00;99.90;;;;;;4954787;29;20468;-65
2022/10/13 11:07:51;;;;;;;7.60;4.77;;;18.00;99.90;;;;;;4955411;29;20417;-63
2022/10/13 11:10:20;;;;;;;4.83;4.07;;;18.00;99.90;;;;;;4955628;28;20420;-65
2022/10/13 11:12:51;;;;;;;4.00;3.70;;;18.10;99.90;;;;;;4954882;29;20813;-63
2022/10/13 11:15:25;;;;;;;4.27;3.87;;;18.10;99.90;;;;;;4955378;29;20428;-64
2022/10/13 11:17:51;;;;;;;4.93;3.67;;;18.20;99.90;;;;;;4955467;29;20415;-63
2022/10/13 11:20:19;;;;;;;4.73;3.10;;;18.20;99.90;;;;;;4955361;29;20495;-65
2022/10/13 11:22:57;;;;;;;4.00;3.57;;;18.20;99.90;;;;;;4954731;29;20192;-63
2022/10/13 11:25:49;;;;;;;4.77;3.73;;;18.30;99.90;;;;;;4955814;29;20474;-65
2022/10/13 11:28:26;;;;;;;3.33;3.03;;;18.40;99.90;;;;;;4955690;29;20412;-65
2022/10/13 11:30:54;;;;;;;5.70;4.20;;;18.20;99.90;;;;;;4907676;29;20415;-65
2022/10/13 11:33:37;;;;;;;4.33;3.80;;;18.20;99.90;;;;;;4933182;28;20773;-64
2022/10/13 11:36:35;;;;;;;4.60;3.60;;;18.30;99.90;;;;;;4978546;28;20430;-64
2022/10/13 11:39:12;;;;;;;5.10;3.60;;;18.30;99.90;;;;;;4996200;28;20399;-62
2022/10/13 11:42:18;;;;;;;5.80;3.20;;;18.40;99.90;;;;;;4996072;28;20933;-63
2022/10/13 11:45:03;;;;;;;3.53;3.23;;;18.50;99.90;;;;;;4995151;28;20474;-63
2022/10/13 11:48:06;;;;;;;3.43;3.13;;;18.70;99.90;;;;;;4978248;28;20418;-63
2022/10/13 11:50:35;;;;;;;5.30;4.37;;;18.80;99.90;;;;;;4993884;28;20413;-61
2022/10/13 11:53:13;;;;;;;7.63;4.00;;;18.80;99.90;;;;;;5008584;28;20392;-64
2022/10/13 11:55:43;;;;;;;3.80;3.40;;;18.80;99.90;;;;;;5015325;28;20438;-64
2022/10/13 11:58:32;;;;;;;6.60;3.27;;;18.90;99.90;;;;;;5012890;28;20418;-67
2022/10/13 12:01:06;;;;;;;4.27;3.80;;;19.00;99.90;;;;;;5014960;28;20811;-62
2022/10/13 12:03:33;;;;;;;6.80;5.20;;;19.00;99.90;;;;;;4996900;28;20840;-65
2022/10/13 12:06:15;;;;;;;6.27;4.43;;;19.00;99.90;;;;;;4995266;28;20497;-63
2022/10/13 12:09:04;;;;;;;6.07;3.80;;;19.00;99.90;;;;;;4995316;28;20773;-63
2022/10/13 12:11:36;;;;;;;5.30;3.30;;;18.90;99.90;;;;;;4976995;28;20423;-66
2022/10/13 12:14:04;;;;;;;6.83;2.77;;;18.80;99.90;;;;;;4994635;28;20431;-63
2022/10/13 12:16:30;;;;;;;3.30;2.90;;;18.80;99.90;;;;;;5003233;28;20422;-65
2022/10/13 12:19:18;;;;;;;4.50;3.63;;;18.90;99.90;;;;;;5014835;28;20548;-65
2022/10/13 12:21:49;;;;;;;4.63;4.23;;;19.00;99.90;;;;;;5014672;28;20185;-66
2022/10/13 12:24:15;;;;;;;5.20;3.57;;;19.10;99.90;;;;;;5013585;28;20449;-64
2022/10/13 12:26:41;;;;;;;3.80;3.50;;;19.10;99.90;;;;;;4988753;28;20422;-66
2022/10/13 12:29:12;;;;;;;3.13;2.70;;;19.10;99.90;;;;;;4994841;28;20168;-63
2022/10/13 12:31:41;;;;;;;4.87;3.70;;;19.20;99.90;;;;;;4995077;28;20176;-66
2022/10/13 12:34:26;;;;;;;12.80;3.67;;;19.20;99.90;;;;;;4994350;28;20429;-64
2022/10/13 12:36:58;;;;;;;3.73;2.70;;;19.30;99.90;;;;;;5003603;28;20923;-65
2022/10/13 12:39:27;;;;;;;4.23;3.30;;;19.30;99.90;;;;;;5014286;28;20508;-64
2022/10/13 12:41:54;;;;;;;3.37;3.07;;;19.30;99.90;;;;;;5014243;28;20418;-65
2022/10/13 12:44:27;;;;;;;4.37;2.97;;;19.40;99.90;;;;;;5013688;28;20548;-63
2022/10/13 12:46:58;;;;;;;6.30;3.50;;;19.40;99.90;;;;;;5005261;28;20528;-65
2022/10/13 12:49:24;;;;;;;3.83;3.40;;;19.40;99.90;;;;;;4994530;28;20431;-63
2022/10/13 12:52:02;;;;;;;5.73;3.60;;;19.30;99.90;;;;;;4993949;28;20411;-65
2022/10/13 12:54:31;;;;;;;5.53;3.10;;;19.30;99.90;;;;;;4976938;28;20444;-64
2022/10/13 12:57:00;;;;;;;4.20;3.40;;;19.30;99.90;;;;;;4994592;28;20430;-63
2022/10/13 12:59:28;;;;;;;8.53;3.33;;;19.30;99.90;;;;;;4994230;28;20948;-62
2022/10/13 13:02:01;;;;;;;4.40;2.97;;;19.10;99.90;;;;;;4994288;28;20553;-65
2022/10/13 13:04:27;;;;;;;3.83;3.27;;;19.20;99.90;;;;;;4993674;28;20999;-63
2022/10/13 13:06:57;;;;;;;5.07;2.90;;;19.10;99.90;;;;;;4994492;28;20422;-66
2022/10/13 13:09:24;;;;;;;4.10;3.33;;;19.20;99.90;;;;;;4993834;28;20203;-65
2022/10/13 13:12:12;;;;;;;4.70;4.30;;;19.30;99.90;;;;;;4994091;28;20403;-66
2022/10/13 13:14:53;;;;;;;6.47;3.20;;;19.20;99.90;;;;;;4993792;28;20954;-63
2022/10/13 13:17:19;;;;;;;3.73;3.27;;;19.20;99.90;;;;;;4998795;28;20454;-63
2022/10/13 13:19:47;;;;;;;5.73;3.93;;;19.10;99.90;;;;;;5012783;28;20859;-65
2022/10/13 13:22:14;;;;;;;4.00;3.60;;;19.00;99.90;;;;;;5013398;28;20171;-64
2022/10/13 13:24:40;;;;;;;4.77;4.17;;;19.00;99.90;;;;;;4995808;28;20596;-63
2022/10/13 13:27:23;;;;;;;6.07;3.90;;;19.00;99.90;;;;;;5005759;28;20526;-64
2022/10/13 13:29:49;;;;;;;4.17;3.60;;;19.00;99.90;;;;;;4993972;28;20418;-64
2022/10/13 13:32:17;;;;;;;3.57;3.23;;;19.00;99.90;;;;;;4994108;28;20407;-65
2022/10/13 13:34:43;;;;;;;5.80;3.07;;;19.00;99.90;;;;;;4992588;28;20187;-65
2022/10/13 13:37:15;;;;;;;4.33;3.77;;;19.10;99.90;;;;;;5005495;28;20508;-66
2022/10/13 13:39:40;;;;;;;3.90;3.50;;;19.10;99.90;;;;;;4979690;28;20422;-69
2022/10/13 13:42:11;;;;;;;6.43;3.50;;;19.10;99.90;;;;;;4995755;28;20417;-69
2022/10/13 13:44:37;;;;;;;3.70;3.30;;;19.10;99.90;;;;;;5012844;28;20333;-69
2022/10/13 13:47:02;;;;;;;4.13;3.50;;;19.20;99.90;;;;;;5003917;28;20536;-68
2022/10/13 13:49:28;;;;;;;4.17;3.67;;;19.20;99.90;;;;;;4994298;28;20162;-69
2022/10/13 13:51:53;;;;;;;4.20;3.00;;;19.20;99.90;;;;;;4993658;28;20179;-69
2022/10/13 13:54:19;;;;;;;4.90;2.90;;;19.20;99.90;;;;;;4993261;28;20271;-69
2022/10/13 13:56:45;;;;;;;4.20;3.20;;;19.20;99.90;;;;;;4994323;28;20637;-69
2022/10/13 13:59:10;;;;;;;4.17;3.47;;;19.20;99.90;;;;;;4993725;28;20411;-71
2022/10/13 14:01:36;;;;;;;4.50;3.70;;;19.10;99.90;;;;;;4993543;28;20250;-69
2022/10/13 14:04:02;;;;;;;3.03;2.83;;;19.10;99.90;;;;;;4993106;28;20199;-68
2022/10/13 14:06:27;;;;;;;4.07;3.23;;;19.00;99.90;;;;;;4993951;28;20738;-68
2022/10/13 14:08:53;;;;;;;3.23;2.87;;;19.00;99.90;;;;;;4993649;28;20175;-73
2022/10/13 14:11:18;;;;;;;5.53;3.77;;;19.00;99.90;;;;;;4976101;28;20642;-73
2022/10/13 14:13:44;;;;;;;8.93;3.67;;;18.90;99.90;;;;;;4993269;28;20188;-72
2022/10/13 14:16:15;;;;;;;4.07;3.67;;;18.80;99.90;;;;;;4994003;28;20175;-72
2022/10/13 14:18:41;;;;;;;3.00;2.80;;;18.80;99.90;;;;;;4993427;28;20179;-72
2022/10/13 14:21:06;;;;;;;4.73;4.20;;;18.80;99.90;;;;;;4993397;28;20405;-71
2022/10/13 14:23:32;;;;;;;4.60;3.47;;;18.80;99.90;;;;;;4993103;28;20195;-71
2022/10/13 14:25:57;;;;;;;4.70;3.90;;;18.80;99.90;;;;;;4993375;28;20211;-72
2022/10/13 14:28:23;;;;;;;3.53;2.80;;;18.70;99.90;;;;;;4993573;28;20172;-71
2022/10/13 14:30:49;;;;;;;5.80;3.53;;;18.60;99.90;;;;;;4994488;28;20630;-63
2022/10/13 14:33:18;;;;;;;6.03;3.70;;;18.60;99.90;;;;;;4992460;28;20255;-65
2022/10/13 14:35:44;;;;;;;5.63;3.80;;;18.50;99.90;;;;;;4993428;28;20163;-66
2022/10/13 14:38:10;;;;;;;3.80;3.37;;;18.50;99.90;;;;;;5009001;28;20457;-66
2022/10/13 14:40:40;;;;;;;4.07;3.50;;;18.40;99.90;;;;;;5012906;28;20419;-63
2022/10/13 14:43:05;;;;;;;3.93;3.57;;;18.50;99.90;;;;;;5012669;28;20544;-65
2022/10/13 14:45:31;;;;;;;7.10;3.40;;;18.40;99.90;;;;;;5013405;28;20545;-62
2022/10/13 14:47:56;;;;;;;6.00;3.70;;;18.40;99.90;;;;;;5002454;28;20179;-63
2022/10/13 14:50:22;;;;;;;5.13;3.50;;;18.30;99.90;;;;;;4996784;28;20179;-65
2022/10/13 14:52:48;;;;;;;4.63;3.50;;;18.20;99.90;;;;;;4946294;28;20179;-65
2022/10/13 14:55:13;;;;;;;5.90;3.53;;;18.20;99.90;;;;;;4996431;28;20215;-65
2022/10/13 14:57:39;;;;;;;4.90;4.40;;;18.10;99.90;;;;;;4996704;28;20199;-63
2022/10/13 15:00:05;;;;;;;5.57;4.10;;;18.00;99.90;;;;;;5009975;28;20254;-64
2022/10/13 15:02:31;;;;;;;4.90;4.40;;;17.90;99.90;;;;;;5006270;28;20522;-63
2022/10/13 15:04:57;;;;;;;3.77;3.40;;;17.90;99.90;;;;;;5000746;28;20556;-63
2022/10/13 15:07:22;;;;;;;3.70;3.40;;;17.80;99.90;;;;;;4996431;28;20191;-64
2022/10/13 15:09:48;;;;;;;5.87;4.63;;;17.70;99.90;;;;;;5008650;28;20181;-64
2022/10/13 15:12:13;;;;;;;5.03;4.20;;;17.50;99.90;;;;;;5009590;28;20237;-67
2022/10/13 15:14:39;;;;;;;6.20;4.57;;;17.30;99.90;;;;;;4996691;28;20217;-66
2022/10/13 15:17:10;;;;;;;8.37;6.30;;;16.90;99.90;;;;;;5001064;28;20180;-66
2022/10/13 15:19:37;;;;;;;9.00;5.63;;;16.40;99.90;;;;;;4980869;28;20239;-65
2022/10/13 15:22:02;;;;;;;10.70;5.00;;;16.00;99.90;;;;;;4980201;28;20423;-66
2022/10/13 15:24:28;;;;;;;6.83;4.90;;;15.80;99.90;;;;;;4996196;28;20993;-63
2022/10/13 15:26:53;;;;;;;9.10;4.70;;;15.60;99.90;;;;;;4996593;28;20757;-64
2022/10/13 15:29:19;;;;;;;7.23;5.27;;;15.60;99.90;;;;;;4996664;28;20179;-66
2022/10/13 15:31:45;;;;;;;4.73;4.13;;;15.50;99.90;;;;;;4979805;28;20246;-67
2022/10/13 15:34:10;;;;;;;7.57;4.90;;;15.40;99.90;;;;;;5002982;28;20196;-67
2022/10/13 15:36:36;;;;;;;6.83;5.47;;;15.40;99.90;;;;;;5011695;28;20187;-66
2022/10/13 15:39:01;;;;;;;8.33;5.03;;;15.40;99.90;;;;;;4995957;28;20696;-65
2022/10/13 15:41:27;;;;;;;8.20;6.40;;;15.40;99.90;;;;;;4995831;28;20177;-67
2022/10/13 15:43:53;;;;;;;9.00;5.13;;;15.40;99.90;;;;;;5000035;28;20197;-69
2022/10/13 15:46:23;;;;;;;22.70;6.13;;;15.40;99.90;;;;;;5015036;28;20676;-69
2022/10/13 15:48:58;;;;;;;6.10;5.03;;;15.50;99.90;;;;;;4995761;28;20649;-71
2022/10/13 15:51:27;;;;;;;6.47;4.40;;;15.50;99.90;;;;;;4977617;28;20450;-70
2022/10/13 15:53:54;;;;;;;7.17;5.80;;;15.50;99.90;;;;;;4981651;28;20443;-69
2022/10/13 15:56:19;;;;;;;7.80;5.53;;;15.40;99.90;;;;;;5015137;28;20403;-69
2022/10/13 15:58:45;;;;;;;7.10;5.43;;;15.40;99.90;;;;;;4995573;28;20423;-67
2022/10/13 16:01:12;;;;;;;6.00;4.70;;;15.40;99.90;;;;;;4995509;28;20171;-68
2022/10/13 16:03:39;;;;;;;8.37;4.50;;;15.30;99.90;;;;;;5012718;28;20210;-69
2022/10/13 16:06:10;;;;;;;7.13;5.33;;;15.30;99.90;;;;;;4997027;28;20489;-68
2022/10/13 16:08:39;;;;;;;6.90;5.50;;;15.20;99.90;;;;;;4997687;28;20481;-67
2022/10/13 16:11:13;;;;;;;6.53;4.77;;;15.20;99.90;;;;;;4995181;28;20395;-68
2022/10/13 16:13:39;;;;;;;8.27;5.80;;;15.10;99.90;;;;;;5012052;28;20438;-68
2022/10/13 16:16:06;;;;;;;10.33;6.17;;;15.00;99.90;;;;;;5014990;28;20413;-70
2022/10/13 16:18:34;;;;;;;7.17;5.47;;;15.00;99.90;;;;;;4999549;28;20417;-69
2022/10/13 16:21:10;;;;;;;10.23;6.10;;;14.90;99.90;;;;;;4996848;28;20449;-68
2022/10/13 16:23:36;;;;;;;8.23;5.87;;;14.80;99.90;;;;;;5014092;28;20429;-68
2022/10/13 16:26:03;;;;;;;8.17;5.73;;;14.80;99.90;;;;;;5014532;28;20456;-68
2022/10/13 16:28:28;;;;;;;7.43;5.07;;;14.80;99.90;;;;;;5014019;28;20229;-70
2022/10/13 16:30:54;;;;;;;7.23;4.90;;;14.80;99.90;;;;;;5004261;28;20454;-69
2022/10/13 16:33:20;;;;;;;10.20;6.23;;;14.80;99.90;;;;;;5014028;28;20253;-72
2022/10/13 16:35:46;;;;;;;7.23;6.43;;;14.80;99.90;;;;;;5014496;28;20529;-69
2022/10/13 16:38:12;;;;;;;6.43;5.07;;;14.80;99.90;;;;;;4994939;28;20190;-70
2022/10/13 16:40:38;;;;;;;11.67;7.50;;;14.70;99.90;;;;;;5007724;28;20417;-71
2022/10/13 16:43:05;;;;;;;6.60;5.70;;;14.70;99.90;;;;;;4994150;28;20203;-70
2022/10/13 16:45:31;;;;;;;7.53;6.20;;;14.70;99.90;;;;;;4994190;28;20812;-67
2022/10/13 16:47:56;;;;;;;8.80;6.67;;;14.70;99.90;;;;;;5011276;28;20427;-71
2022/10/13 16:50:22;;;;;;;8.33;5.87;;;14.70;99.90;;;;;;5002593;28;20530;-68
2022/10/13 16:52:48;;;;;;;10.40;7.40;;;14.70;99.90;;;;;;5011255;28;20170;-70
2022/10/13 16:55:14;;;;;;;8.70;6.50;;;14.70;99.90;;;;;;4996387;28;20202;-69
2022/10/13 16:57:40;;;;;;;8.60;6.30;;;14.70;99.90;;;;;;4998908;28;20183;-72
2022/10/13 17:00:08;;;;;;;6.60;5.77;;;14.70;99.90;;;;;;5002829;28;20797;-70
2022/10/13 17:02:34;;;;;;;7.43;6.13;;;14.70;99.90;;;;;;4995439;28;20396;-69